Time;durP1;ratioP1;P1;durP2;ratioP2;P2;SDS_P1;SDS_P2;PMS_P1;PMS_P2;Temp;Humidity;BMP_temperature;BMP_pressure;BME280_temperature;BME280_humidity;BME280_pressure;Samples;Min_cycle;Max_cycle;Signal;HPM_P1;HPM_P2
2021/06/22 00:00:36;;;;;;;12.32;5.70;;;;;;;;;;5093572;28;20020;-59
2021/06/22 00:03:02;;;;;;;13.55;5.30;;;;;;;;;;5093490;28;20153;-58
2021/06/22 00:05:30;;;;;;;13.95;5.78;;;;;;;;;;5093436;28;20093;-58
2021/06/22 00:07:56;;;;;;;9.32;5.15;;;;;;;;;;5093386;28;20099;-58
2021/06/22 00:10:24;;;;;;;12.25;5.40;;;;;;;;;;5093237;28;20039;-59
2021/06/22 00:12:50;;;;;;;15.05;6.03;;;;;;;;;;5091986;28;20016;-61
2021/06/22 00:15:18;;;;;;;9.38;5.60;;;;;;;;;;5093113;28;20055;-59
2021/06/22 00:17:45;;;;;;;14.98;5.70;;;;;;;;;;5092840;28;20406;-58
2021/06/22 00:20:12;;;;;;;7.95;5.10;;;;;;;;;;5091914;28;20063;-58
2021/06/22 00:22:42;;;;;;;15.15;5.22;;;;;;;;;;5092942;28;20028;-61
2021/06/22 00:25:09;;;;;;;11.07;5.20;;;;;;;;;;5092998;28;20467;-61
2021/06/22 00:27:35;;;;;;;13.35;5.53;;;;;;;;;;5093587;28;20028;-60
2021/06/22 00:30:01;;;;;;;11.10;4.57;;;;;;;;;;5093211;28;20085;-60
2021/06/22 00:32:27;;;;;;;10.57;5.43;;;;;;;;;;5092628;28;20031;-60
2021/06/22 00:34:54;;;;;;;11.70;5.40;;;;;;;;;;5092876;28;20032;-59
2021/06/22 00:37:20;;;;;;;14.27;5.22;;;;;;;;;;5092002;28;20081;-59
2021/06/22 00:39:46;;;;;;;9.25;5.13;;;;;;;;;;5092681;28;20028;-59
2021/06/22 00:42:13;;;;;;;12.73;5.43;;;;;;;;;;5092615;28;20091;-59
2021/06/22 00:44:57;;;;;;;8.85;5.10;;;;;;;;;;5092716;28;20468;-59
2021/06/22 00:47:23;;;;;;;11.75;5.30;;;;;;;;;;5092651;28;20061;-59
2021/06/22 00:49:50;;;;;;;12.35;5.57;;;;;;;;;;5092501;28;20047;-59
2021/06/22 00:52:19;;;;;;;12.43;5.57;;;;;;;;;;5092344;28;20073;-59
2021/06/22 00:54:45;;;;;;;11.85;5.45;;;;;;;;;;5092047;28;20052;-59
2021/06/22 00:57:11;;;;;;;11.52;5.68;;;;;;;;;;5092229;28;20132;-59
2021/06/22 00:59:38;;;;;;;13.48;5.95;;;;;;;;;;5092767;28;20028;-58
2021/06/22 01:02:05;;;;;;;14.02;5.45;;;;;;;;;;5092527;28;20031;-58
2021/06/22 01:04:31;;;;;;;12.93;5.90;;;;;;;;;;5092630;28;20371;-59
2021/06/22 01:06:57;;;;;;;12.30;5.82;;;;;;;;;;5092360;28;20028;-58
2021/06/22 01:09:24;;;;;;;12.93;5.22;;;;;;;;;;5090814;28;20020;-59
2021/06/22 01:11:50;;;;;;;14.50;6.10;;;;;;;;;;5092310;28;20028;-60
2021/06/22 01:14:17;;;;;;;12.45;5.95;;;;;;;;;;5092168;28;20032;-60
2021/06/22 01:16:43;;;;;;;12.73;6.10;;;;;;;;;;5092528;28;20024;-58
2021/06/22 01:19:09;;;;;;;10.20;5.05;;;;;;;;;;5092408;28;20028;-58
2021/06/22 01:21:36;;;;;;;12.32;5.68;;;;;;;;;;5092198;28;20042;-58
2021/06/22 01:24:14;;;;;;;10.15;5.40;;;;;;;;;;5092103;28;20495;-59
2021/06/22 01:26:44;;;;;;;13.02;5.90;;;;;;;;;;5092456;28;20549;-59
2021/06/22 01:29:10;;;;;;;10.52;5.88;;;;;;;;;;5092330;28;20024;-59
2021/06/22 01:31:36;;;;;;;10.95;5.40;;;;;;;;;;5092285;28;20034;-58
2021/06/22 01:34:03;;;;;;;23.42;5.68;;;;;;;;;;5091833;28;20032;-59
2021/06/22 01:36:31;;;;;;;16.77;5.05;;;;;;;;;;5092436;28;20024;-62
2021/06/22 01:38:57;;;;;;;13.23;4.22;;;;;;;;;;5090355;28;20035;-59
2021/06/22 01:41:23;;;;;;;10.00;5.07;;;;;;;;;;5092241;28;20024;-59
2021/06/22 01:43:49;;;;;;;13.00;4.97;;;;;;;;;;5092315;28;20375;-60
2021/06/22 01:46:16;;;;;;;13.70;4.97;;;;;;;;;;5092208;28;20024;-62
2021/06/22 01:48:42;;;;;;;11.95;5.03;;;;;;;;;;5091935;28;20475;-58
2021/06/22 01:51:08;;;;;;;12.45;5.45;;;;;;;;;;5091755;28;20028;-59
2021/06/22 01:53:34;;;;;;;11.52;5.40;;;;;;;;;;5091808;28;20044;-58
2021/06/22 01:56:00;;;;;;;14.35;5.05;;;;;;;;;;5091333;28;20102;-58
2021/06/22 01:58:26;;;;;;;14.13;5.45;;;;;;;;;;5091442;28;20024;-58
2021/06/22 02:00:54;;;;;;;8.98;4.90;;;;;;;;;;5091484;28;20020;-58
2021/06/22 02:03:21;;;;;;;8.95;5.00;;;;;;;;;;5091863;28;20476;-61
2021/06/22 02:05:48;;;;;;;12.18;4.80;;;;;;;;;;5092017;28;20022;-60
2021/06/22 02:08:18;;;;;;;9.45;4.70;;;;;;;;;;5091791;28;20657;-61
2021/06/22 02:10:44;;;;;;;12.00;5.40;;;;;;;;;;5091956;28;20016;-61
2021/06/22 02:13:11;;;;;;;14.73;5.05;;;;;;;;;;5091941;28;20035;-60
2021/06/22 02:15:37;;;;;;;11.85;4.97;;;;;;;;;;5091327;28;20077;-59
2021/06/22 02:18:03;;;;;;;11.77;5.22;;;;;;;;;;5091365;28;20078;-58
2021/06/22 02:20:29;;;;;;;11.38;5.00;;;;;;;;;;5091234;28;20411;-59
2021/06/22 02:22:55;;;;;;;14.57;5.03;;;;;;;;;;5091128;28;20111;-61
2021/06/22 02:25:22;;;;;;;22.90;5.60;;;;;;;;;;5090692;28;20020;-59
2021/06/22 02:27:48;;;;;;;16.45;5.30;;;;;;;;;;5090849;28;20081;-60
2021/06/22 02:30:15;;;;;;;12.93;5.63;;;;;;;;;;5091036;28;20020;-60
2021/06/22 02:32:42;;;;;;;13.20;5.25;;;;;;;;;;5091158;28;20418;-61
2021/06/22 02:35:09;;;;;;;15.35;5.47;;;;;;;;;;5091097;28;20031;-60
2021/06/22 02:37:39;;;;;;;13.38;4.70;;;;;;;;;;5091022;28;20020;-59
2021/06/22 02:40:06;;;;;;;16.42;5.82;;;;;;;;;;5090798;28;20020;-59
2021/06/22 02:42:32;;;;;;;13.70;5.85;;;;;;;;;;5090848;28;20095;-60
2021/06/22 02:44:58;;;;;;;16.52;5.93;;;;;;;;;;5091431;28;20055;-60
2021/06/22 02:47:24;;;;;;;13.18;5.38;;;;;;;;;;5091804;28;20144;-59
2021/06/22 02:49:51;;;;;;;13.00;6.22;;;;;;;;;;5091715;28;20031;-60
2021/06/22 02:52:17;;;;;;;11.82;5.88;;;;;;;;;;5091762;28;20107;-59
2021/06/22 02:54:43;;;;;;;14.73;5.82;;;;;;;;;;5091595;28;20093;-60
2021/06/22 02:57:09;;;;;;;12.40;5.95;;;;;;;;;;5091360;28;20072;-59
2021/06/22 02:59:36;;;;;;;11.80;5.75;;;;;;;;;;5091524;28;20132;-60
2021/06/22 03:02:04;;;;;;;20.65;6.30;;;;;;;;;;5094812;28;20472;-59
2021/06/22 03:04:30;;;;;;;21.40;6.40;;;;;;;;;;5094957;28;20528;-59
2021/06/22 03:06:56;;;;;;;17.67;6.57;;;;;;;;;;5094544;28;20466;-60
2021/06/22 03:09:22;;;;;;;19.13;6.18;;;;;;;;;;5094356;28;20542;-59
2021/06/22 03:11:49;;;;;;;21.98;6.75;;;;;;;;;;5094281;28;20052;-60
2021/06/22 03:14:17;;;;;;;15.85;6.55;;;;;;;;;;5094143;28;20039;-59
2021/06/22 03:16:43;;;;;;;31.52;6.72;;;;;;;;;;5094557;28;20042;-58
2021/06/22 03:19:09;;;;;;;17.17;6.60;;;;;;;;;;5094815;28;20027;-58
2021/06/22 03:21:36;;;;;;;16.92;6.25;;;;;;;;;;5094859;28;20031;-60
2021/06/22 03:24:02;;;;;;;18.38;6.38;;;;;;;;;;5094794;28;20059;-62
2021/06/22 03:26:28;;;;;;;16.23;5.68;;;;;;;;;;5094841;28;20115;-63
2021/06/22 03:28:54;;;;;;;16.67;6.38;;;;;;;;;;5094631;28;20031;-59
2021/06/22 03:31:20;;;;;;;18.60;6.80;;;;;;;;;;5094292;28;20028;-59
2021/06/22 03:33:46;;;;;;;19.15;6.80;;;;;;;;;;5094157;28;20081;-62
2021/06/22 03:36:12;;;;;;;14.77;6.78;;;;;;;;;;5093796;28;20058;-58
2021/06/22 03:38:39;;;;;;;15.32;6.90;;;;;;;;;;5081536;28;20051;-58
2021/06/22 03:41:05;;;;;;;19.23;6.00;;;;;;;;;;5074117;28;20020;-58
2021/06/22 03:43:31;;;;;;;14.27;6.03;;;;;;;;;;5072946;28;20486;-58
2021/06/22 03:45:57;;;;;;;16.60;6.50;;;;;;;;;;5074157;28;20054;-61
2021/06/22 03:48:23;;;;;;;20.58;7.50;;;;;;;;;;5074276;28;20056;-61
2021/06/22 03:50:49;;;;;;;17.35;7.72;;;;;;;;;;5073915;28;20020;-62
2021/06/22 03:53:15;;;;;;;17.52;6.78;;;;;;;;;;5073778;28;20028;-58
2021/06/22 03:55:42;;;;;;;15.32;6.47;;;;;;;;;;5073831;28;20060;-60
2021/06/22 03:58:08;;;;;;;12.57;6.88;;;;;;;;;;5073668;28;20024;-58
2021/06/22 04:00:34;;;;;;;21.65;7.05;;;;;;;;;;5073745;28;20021;-58
2021/06/22 04:03:01;;;;;;;17.05;6.65;;;;;;;;;;5073748;28;20031;-58
2021/06/22 04:05:27;;;;;;;20.77;6.97;;;;;;;;;;5073676;28;20020;-60
2021/06/22 04:07:53;;;;;;;17.00;6.93;;;;;;;;;;5073055;28;20025;-62
2021/06/22 04:10:20;;;;;;;19.23;7.78;;;;;;;;;;5072853;28;20025;-61
2021/06/22 04:12:46;;;;;;;16.33;6.45;;;;;;;;;;5072758;28;20040;-59
2021/06/22 04:15:12;;;;;;;19.35;7.18;;;;;;;;;;5072582;28;20021;-59
2021/06/22 04:17:38;;;;;;;15.18;7.13;;;;;;;;;;5072794;28;20093;-59
2021/06/22 04:20:05;;;;;;;27.52;7.82;;;;;;;;;;5072846;28;20070;-60
2021/06/22 04:22:31;;;;;;;16.05;6.72;;;;;;;;;;5071896;28;20372;-59
2021/06/22 04:24:57;;;;;;;18.90;6.88;;;;;;;;;;5072906;28;20028;-62
2021/06/22 04:27:23;;;;;;;18.40;6.97;;;;;;;;;;5071469;28;20107;-59
2021/06/22 04:29:49;;;;;;;20.77;7.40;;;;;;;;;;5072840;28;20029;-60
2021/06/22 04:32:16;;;;;;;18.80;7.57;;;;;;;;;;5072644;28;20029;-59
2021/06/22 04:34:43;;;;;;;28.52;8.25;;;;;;;;;;5072372;28;20033;-59
2021/06/22 04:37:09;;;;;;;25.73;8.82;;;;;;;;;;5072886;28;20020;-58
2021/06/22 04:39:35;;;;;;;19.05;7.90;;;;;;;;;;5072635;28;20425;-58
2021/06/22 04:42:01;;;;;;;21.58;7.22;;;;;;;;;;5071405;28;20017;-58
2021/06/22 04:44:27;;;;;;;18.65;8.40;;;;;;;;;;5072933;28;20028;-59
2021/06/22 04:46:53;;;;;;;17.77;7.45;;;;;;;;;;5072466;28;20025;-58
2021/06/22 04:49:19;;;;;;;19.83;7.60;;;;;;;;;;5072247;28;20024;-59
2021/06/22 04:51:45;;;;;;;16.20;7.70;;;;;;;;;;5072272;28;20020;-58
2021/06/22 04:54:12;;;;;;;19.95;7.30;;;;;;;;;;5072061;28;20033;-59
2021/06/22 04:56:39;;;;;;;20.35;8.18;;;;;;;;;;5072272;28;20123;-59
2021/06/22 04:59:05;;;;;;;22.70;7.90;;;;;;;;;;5086615;28;20031;-58
2021/06/22 05:01:31;;;;;;;13.18;7.63;;;;;;;;;;5091690;28;20065;-58
2021/06/22 05:03:57;;;;;;;17.92;8.15;;;;;;;;;;5092200;28;20581;-60
2021/06/22 05:06:23;;;;;;;26.42;8.50;;;;;;;;;;5091848;28;20032;-58
2021/06/22 05:08:49;;;;;;;22.77;8.27;;;;;;;;;;5091775;28;20024;-61
2021/06/22 05:11:16;;;;;;;20.98;7.60;;;;;;;;;;5091497;28;20020;-59
2021/06/22 05:13:42;;;;;;;20.35;8.35;;;;;;;;;;5091622;28;20471;-58
2021/06/22 05:16:08;;;;;;;15.80;7.95;;;;;;;;;;5091697;28;20675;-58
2021/06/22 05:18:34;;;;;;;19.00;8.20;;;;;;;;;;5091487;28;20020;-58
2021/06/22 05:21:00;;;;;;;19.15;8.43;;;;;;;;;;5090198;28;20015;-58
2021/06/22 05:23:27;;;;;;;17.17;8.52;;;;;;;;;;5091152;28;20527;-58
2021/06/22 05:25:53;;;;;;;23.08;8.23;;;;;;;;;;5091173;28;20027;-59
2021/06/22 05:28:19;;;;;;;26.27;8.32;;;;;;;;;;5091171;28;20510;-59
2021/06/22 05:30:45;;;;;;;17.73;7.95;;;;;;;;;;5091651;28;20024;-59
2021/06/22 05:33:11;;;;;;;16.92;8.13;;;;;;;;;;5091684;28;20064;-60
2021/06/22 05:35:37;;;;;;;19.98;8.75;;;;;;;;;;5091816;28;20509;-62
2021/06/22 05:38:04;;;;;;;18.27;7.45;;;;;;;;;;5086473;28;20048;-60
2021/06/22 05:40:30;;;;;;;19.35;7.93;;;;;;;;;;5084701;28;20024;-58
2021/06/22 05:42:56;;;;;;;21.95;7.93;;;;;;;;;;5091525;28;20031;-60
2021/06/22 05:45:22;;;;;;;24.98;8.05;;;;;;;;;;5091475;28;20024;-59
2021/06/22 05:47:48;;;;;;;17.13;8.07;;;;;;;;;;5091497;28;20502;-58
2021/06/22 05:50:15;;;;;;;15.70;7.35;;;;;;;;;;5091642;28;20035;-58
2021/06/22 05:52:42;;;;;;;26.25;7.50;;;;;;;;;;5090904;28;20020;-59
2021/06/22 05:55:17;;;;;;;22.30;8.13;;;;;;;;;;5089518;28;20036;-59
2021/06/22 05:57:53;;;;;;;20.65;7.93;;;;;;;;;;5091036;28;20031;-59
2021/06/22 06:00:21;;;;;;;16.95;7.38;;;;;;;;;;5090910;28;20499;-59
2021/06/22 06:02:49;;;;;;;19.48;7.70;;;;;;;;;;5091191;28;20028;-59
2021/06/22 06:05:15;;;;;;;32.72;8.10;;;;;;;;;;5091406;28;20107;-59
2021/06/22 06:07:41;;;;;;;26.40;8.30;;;;;;;;;;5091447;28;20024;-59
2021/06/22 06:10:07;;;;;;;23.38;8.45;;;;;;;;;;5090683;28;20059;-58
2021/06/22 06:12:34;;;;;;;30.23;8.70;;;;;;;;;;5088933;28;20117;-59
2021/06/22 06:15:00;;;;;;;23.50;8.60;;;;;;;;;;5079559;28;20125;-59
2021/06/22 06:17:26;;;;;;;27.60;9.02;;;;;;;;;;5083919;28;20450;-59
2021/06/22 06:19:52;;;;;;;24.63;8.35;;;;;;;;;;5087952;28;20024;-59
2021/06/22 06:22:19;;;;;;;24.20;8.13;;;;;;;;;;5070170;28;20100;-59
2021/06/22 06:24:45;;;;;;;31.92;8.73;;;;;;;;;;5085683;28;20222;-59
2021/06/22 06:32:09;;;;;;;20.85;7.88;;;;;;;;;;5070469;28;20078;-59
2021/06/22 06:34:35;;;;;;;25.20;7.88;;;;;;;;;;5070520;28;20033;-59
2021/06/22 06:37:02;;;;;;;30.55;8.35;;;;;;;;;;5074587;28;20032;-59
2021/06/22 06:39:28;;;;;;;27.20;8.10;;;;;;;;;;5074836;28;20020;-58
2021/06/22 06:41:54;;;;;;;26.92;7.88;;;;;;;;;;5074467;28;20459;-59
2021/06/22 06:44:20;;;;;;;19.90;7.93;;;;;;;;;;5074240;28;20021;-59
2021/06/22 06:46:46;;;;;;;33.75;8.63;;;;;;;;;;5074635;28;20051;-60
2021/06/22 06:49:12;;;;;;;25.83;8.57;;;;;;;;;;5074427;28;20035;-61
2021/06/22 06:51:38;;;;;;;29.33;8.90;;;;;;;;;;5074142;28;20027;-62
2021/06/22 06:54:04;;;;;;;23.65;8.55;;;;;;;;;;5074167;28;20040;-60
2021/06/22 06:56:31;;;;;;;29.67;7.53;;;;;;;;;;5074186;28;20049;-59
2021/06/22 06:58:57;;;;;;;33.05;8.02;;;;;;;;;;5074478;28;20119;-59
2021/06/22 07:01:23;;;;;;;24.88;7.72;;;;;;;;;;5074167;28;20046;-60
2021/06/22 07:03:49;;;;;;;25.00;8.73;;;;;;;;;;5072574;28;20035;-59
2021/06/22 07:06:15;;;;;;;30.08;8.70;;;;;;;;;;5073708;28;20040;-59
2021/06/22 07:08:42;;;;;;;35.00;8.60;;;;;;;;;;5076985;28;20019;-60
2021/06/22 07:11:08;;;;;;;30.98;8.88;;;;;;;;;;5093952;28;20024;-60
2021/06/22 07:13:34;;;;;;;34.72;9.02;;;;;;;;;;5094393;28;20043;-59
2021/06/22 07:16:00;;;;;;;28.27;8.15;;;;;;;;;;5092632;28;20227;-60
2021/06/22 07:18:31;;;;;;;20.65;7.90;;;;;;;;;;5093850;28;20565;-59
2021/06/22 07:20:57;;;;;;;30.58;8.50;;;;;;;;;;5094089;28;20117;-59
2021/06/22 07:23:24;;;;;;;20.10;7.53;;;;;;;;;;5084777;28;20494;-59
2021/06/22 07:25:50;;;;;;;27.77;7.50;;;;;;;;;;5073725;28;20091;-60
2021/06/22 07:28:16;;;;;;;35.45;8.27;;;;;;;;;;5073597;28;20096;-60
2021/06/22 07:30:42;;;;;;;33.35;8.63;;;;;;;;;;5073641;28;20048;-60
2021/06/22 07:33:08;;;;;;;31.17;8.10;;;;;;;;;;5073821;28;20036;-60
2021/06/22 07:35:34;;;;;;;27.75;7.00;;;;;;;;;;5073723;28;20029;-59
2021/06/22 07:38:01;;;;;;;33.70;7.82;;;;;;;;;;5073600;28;20020;-61
2021/06/22 07:40:28;;;;;;;36.22;8.20;;;;;;;;;;5072633;28;20067;-59
2021/06/22 07:42:54;;;;;;;30.52;8.32;;;;;;;;;;5084766;28;20024;-59
2021/06/22 07:45:21;;;;;;;36.72;9.05;;;;;;;;;;5073240;28;20017;-59
2021/06/22 07:47:47;;;;;;;29.15;7.85;;;;;;;;;;5083578;28;20028;-59
2021/06/22 07:50:14;;;;;;;30.00;7.15;;;;;;;;;;5093259;28;20020;-59
2021/06/22 07:52:40;;;;;;;18.35;6.35;;;;;;;;;;5093340;28;20024;-59
2021/06/22 07:55:13;;;;;;;31.00;7.50;;;;;;;;;;5088039;28;20491;-60
2021/06/22 07:57:39;;;;;;;35.38;8.40;;;;;;;;;;5073088;28;20056;-60
2021/06/22 08:00:12;;;;;;;45.00;8.27;;;;;;;;;;5072965;28;20485;-58
2021/06/22 08:02:38;;;;;;;40.72;7.88;;;;;;;;;;5072905;28;20017;-59
2021/06/22 08:05:05;;;;;;;29.17;8.02;;;;;;;;;;5073041;28;20677;-59
2021/06/22 08:07:31;;;;;;;38.95;8.73;;;;;;;;;;5073147;28;20028;-59
2021/06/22 08:09:57;;;;;;;29.23;7.35;;;;;;;;;;5073031;28;20103;-59
2021/06/22 08:12:23;;;;;;;37.53;8.13;;;;;;;;;;5082404;28;20028;-60
2021/06/22 08:14:49;;;;;;;22.63;6.40;;;;;;;;;;5073865;28;20501;-60
2021/06/22 08:17:15;;;;;;;29.02;7.63;;;;;;;;;;5077838;28;20020;-59
2021/06/22 08:19:41;;;;;;;20.83;6.88;;;;;;;;;;5093372;28;20103;-61
2021/06/22 08:22:07;;;;;;;26.50;7.50;;;;;;;;;;5093389;28;20020;-61
2021/06/22 08:24:33;;;;;;;25.80;6.63;;;;;;;;;;5093260;28;20066;-59
2021/06/22 08:26:59;;;;;;;24.55;7.20;;;;;;;;;;5092779;28;20031;-59
2021/06/22 08:29:25;;;;;;;43.58;8.18;;;;;;;;;;5087265;28;20096;-58
2021/06/22 08:31:51;;;;;;;19.70;5.88;;;;;;;;;;5072474;28;20021;-59
2021/06/22 08:34:17;;;;;;;26.15;7.18;;;;;;;;;;5072512;28;20032;-59
2021/06/22 08:36:43;;;;;;;27.08;8.77;;;;;;;;;;5072123;28;20100;-60
2021/06/22 08:39:09;;;;;;;30.20;7.13;;;;;;;;;;5085922;28;20436;-60
2021/06/22 08:41:36;;;;;;;26.92;7.80;;;;;;;;;;5090545;28;20020;-59
2021/06/22 08:44:04;;;;;;;33.13;7.55;;;;;;;;;;5092101;28;20024;-61
2021/06/22 08:46:30;;;;;;;40.13;7.68;;;;;;;;;;5091952;28;20352;-59
2021/06/22 08:48:56;;;;;;;42.60;8.00;;;;;;;;;;5092134;28;20032;-58
2021/06/22 08:51:23;;;;;;;32.20;7.68;;;;;;;;;;5092249;28;20095;-58
2021/06/22 08:53:49;;;;;;;33.80;8.75;;;;;;;;;;5092231;28;20024;-59
2021/06/22 08:56:15;;;;;;;32.15;7.93;;;;;;;;;;5091929;28;20119;-61
2021/06/22 08:58:41;;;;;;;30.35;6.13;;;;;;;;;;5091291;28;20029;-61
2021/06/22 09:01:07;;;;;;;32.28;8.30;;;;;;;;;;5091683;28;20074;-59
2021/06/22 09:03:33;;;;;;;25.00;6.80;;;;;;;;;;5091825;28;20053;-58
2021/06/22 09:06:00;;;;;;;42.38;8.75;;;;;;;;;;5086061;28;20031;-58
2021/06/22 09:08:26;;;;;;;31.58;8.40;;;;;;;;;;5077620;28;20487;-58
2021/06/22 09:10:53;;;;;;;35.80;8.18;;;;;;;;;;5090867;28;20519;-58
2021/06/22 09:13:26;;;;;;;32.25;7.43;;;;;;;;;;5091338;28;20036;-59
2021/06/22 09:15:54;;;;;;;39.00;8.73;;;;;;;;;;5090287;28;20746;-58
2021/06/22 09:18:26;;;;;;;24.55;6.95;;;;;;;;;;5091029;28;20076;-64
2021/06/22 09:20:52;;;;;;;;;;;;;;;;;;5091890;28;20444;-60
2021/06/22 09:23:19;;;;;;;26.05;6.28;;;;;;;;;;5091751;28;19951;-62
2021/06/22 09:25:47;;;;;;;30.77;7.20;;;;;;;;;;5091609;28;20403;-61
2021/06/22 09:28:14;;;;;;;25.05;7.30;;;;;;;;;;5091370;28;20042;-62
2021/06/22 09:30:42;;;;;;;37.90;8.57;;;;;;;;;;5091868;28;20054;-60
2021/06/22 09:33:14;;;;;;;38.15;8.35;;;;;;;;;;5086189;28;20039;-59
2021/06/22 09:35:40;;;;;;;25.83;6.75;;;;;;;;;;5077385;28;20021;-59
2021/06/22 09:38:07;;;;;;;27.67;7.03;;;;;;;;;;5072445;28;20024;-60
2021/06/22 09:40:33;;;;;;;30.67;7.15;;;;;;;;;;5091931;28;20034;-59
2021/06/22 09:42:59;;;;;;;23.08;7.38;;;;;;;;;;5091872;28;20020;-64
2021/06/22 09:45:28;;;;;;;35.67;7.63;;;;;;;;;;5090455;28;20009;-62
2021/06/22 09:47:58;;;;;;;37.80;8.60;;;;;;;;;;5091721;28;20107;-60
2021/06/22 09:50:39;;;;;;;33.80;7.28;;;;;;;;;;5089224;28;20103;-58
2021/06/22 09:53:44;;;;;;;32.88;8.23;;;;;;;;;;5085483;28;20035;-58
2021/06/22 09:56:24;;;;;;;43.63;9.43;;;;;;;;;;5047966;28;20053;-59
2021/06/22 09:58:50;;;;;;;42.33;7.50;;;;;;;;;;5048263;28;20059;-58
2021/06/22 10:01:35;;;;;;;37.75;7.75;;;;;;;;;;5062813;28;20032;-58
2021/06/22 10:04:37;;;;;;;33.75;6.82;;;;;;;;;;5090973;28;20024;-61
2021/06/22 10:07:03;;;;;;;23.15;6.43;;;;;;;;;;5068088;28;20471;-58
2021/06/22 10:09:34;;;;;;;27.73;6.82;;;;;;;;;;5087827;28;20037;-58
2021/06/22 10:12:07;;;;;;;31.27;6.07;;;;;;;;;;5095395;28;20074;-60
2021/06/22 10:14:35;;;;;;;37.03;8.68;;;;;;;;;;5095286;28;20032;-61
2021/06/22 10:17:03;;;;;;;44.40;8.82;;;;;;;;;;5095145;28;20024;-63
2021/06/22 10:19:30;;;;;;;32.72;7.43;;;;;;;;;;5094214;28;20390;-62
2021/06/22 10:21:56;;;;;;;33.83;8.27;;;;;;;;;;5095313;28;20016;-58
2021/06/22 10:24:23;;;;;;;35.40;8.57;;;;;;;;;;5095287;28;20565;-58
2021/06/22 10:26:49;;;;;;;26.95;7.95;;;;;;;;;;5095330;28;20027;-59
2021/06/22 10:29:17;;;;;;;44.15;9.82;;;;;;;;;;5094991;28;20024;-58
2021/06/22 10:31:44;;;;;;;33.50;8.27;;;;;;;;;;5095331;28;20106;-61
2021/06/22 10:34:10;;;;;;;33.15;8.27;;;;;;;;;;5094827;28;20128;-59
2021/06/22 10:36:38;;;;;;;35.88;7.07;;;;;;;;;;5095014;28;20024;-58
2021/06/22 10:39:09;;;;;;;36.50;7.90;;;;;;;;;;5095017;28;20043;-58
2021/06/22 10:41:41;;;;;;;34.85;6.75;;;;;;;;;;5094921;28;20558;-59
2021/06/22 10:44:27;;;;;;;27.30;6.80;;;;;;;;;;5094630;28;20012;-58
2021/06/22 10:47:12;;;;;;;32.17;7.43;;;;;;;;;;5094532;28;20024;-61
2021/06/22 10:49:55;;;;;;;32.03;7.75;;;;;;;;;;5094620;28;20023;-61
2021/06/22 10:52:40;;;;;;;42.75;8.48;;;;;;;;;;5093308;28;20501;-59
2021/06/22 10:55:06;;;;;;;37.83;8.35;;;;;;;;;;5094082;28;20064;-60
2021/06/22 10:57:51;;;;;;;47.15;8.32;;;;;;;;;;5094175;28;20047;-57
2021/06/22 11:00:17;;;;;;;38.50;8.13;;;;;;;;;;5090074;28;20082;-60
2021/06/22 11:03:01;;;;;;;35.45;7.63;;;;;;;;;;5093114;28;20107;-58
2021/06/22 11:05:28;;;;;;;41.10;9.77;;;;;;;;;;5094081;28;20020;-58
2021/06/22 11:08:09;;;;;;;38.40;9.18;;;;;;;;;;5093810;28;20024;-58
2021/06/22 11:10:36;;;;;;;41.33;7.97;;;;;;;;;;5094016;28;20028;-58
2021/06/22 11:13:03;;;;;;;24.85;8.13;;;;;;;;;;5093682;28;20055;-59
2021/06/22 11:15:47;;;;;;;38.90;7.78;;;;;;;;;;5093052;28;20031;-58
2021/06/22 11:18:18;;;;;;;39.92;8.63;;;;;;;;;;5088772;28;20028;-58
2021/06/22 11:21:03;;;;;;;30.50;7.78;;;;;;;;;;5089274;28;20042;-58
2021/06/22 11:23:29;;;;;;;41.38;7.88;;;;;;;;;;5092751;28;20487;-58
2021/06/22 11:26:02;;;;;;;33.42;7.95;;;;;;;;;;5092892;28;20024;-58
2021/06/22 11:28:29;;;;;;;37.85;7.13;;;;;;;;;;5093407;28;20612;-59
2021/06/22 11:30:59;;;;;;;38.47;9.35;;;;;;;;;;5092645;28;20081;-58
2021/06/22 11:33:28;;;;;;;34.13;7.57;;;;;;;;;;5092703;28;20036;-59
2021/06/22 11:36:13;;;;;;;30.27;6.95;;;;;;;;;;5093161;28;20111;-61
2021/06/22 11:38:39;;;;;;;35.22;7.68;;;;;;;;;;5093476;28;20082;-62
2021/06/22 11:41:16;;;;;;;26.20;6.82;;;;;;;;;;5093047;28;20027;-60
2021/06/22 11:44:01;;;;;;;45.15;7.68;;;;;;;;;;5093526;28;20031;-60
2021/06/22 11:46:28;;;;;;;40.67;6.90;;;;;;;;;;5092947;28;20099;-61
2021/06/22 11:48:56;;;;;;;29.55;7.10;;;;;;;;;;5093029;28;20111;-67
2021/06/22 11:51:40;;;;;;;31.65;6.93;;;;;;;;;;5093252;28;20554;-60
2021/06/22 11:54:06;;;;;;;30.02;7.38;;;;;;;;;;5093084;28;20047;-60
2021/06/22 11:56:34;;;;;;;26.35;7.28;;;;;;;;;;5092635;28;20040;-62
2021/06/22 11:59:03;;;;;;;27.67;6.47;;;;;;;;;;5093072;28;20032;-60
2021/06/22 12:01:30;;;;;;;25.23;6.05;;;;;;;;;;5093056;28;20073;-60
2021/06/22 12:03:56;;;;;;;28.63;6.57;;;;;;;;;;5092706;28;20028;-61
2021/06/22 12:06:23;;;;;;;31.15;6.55;;;;;;;;;;5085922;28;20046;-59
2021/06/22 12:08:49;;;;;;;34.65;7.28;;;;;;;;;;5073642;28;20114;-59
2021/06/22 12:11:32;;;;;;;28.92;6.57;;;;;;;;;;5073376;28;20079;-60
2021/06/22 12:13:58;;;;;;;31.58;8.30;;;;;;;;;;5088114;28;20035;-62
2021/06/22 12:16:33;;;;;;;25.58;6.32;;;;;;;;;;5091904;28;20028;-60
2021/06/22 12:19:06;;;;;;;36.72;6.70;;;;;;;;;;5093797;28;20058;-59
2021/06/22 12:21:38;;;;;;;20.92;5.82;;;;;;;;;;5092674;28;20023;-62
2021/06/22 12:24:10;;;;;;;23.45;4.95;;;;;;;;;;5091868;28;20020;-62
2021/06/22 12:26:38;;;;;;;19.17;5.65;;;;;;;;;;5092154;28;20043;-60
2021/06/22 12:29:15;;;;;;;17.20;5.22;;;;;;;;;;5091953;28;20490;-62
2021/06/22 12:31:48;;;;;;;24.77;4.85;;;;;;;;;;5092029;28;20404;-62
2021/06/22 12:34:14;;;;;;;17.45;4.68;;;;;;;;;;5091104;28;20028;-60
2021/06/22 12:36:40;;;;;;;14.60;4.72;;;;;;;;;;5092064;28;20024;-60
2021/06/22 12:39:06;;;;;;;15.73;4.95;;;;;;;;;;5093003;28;20012;-61
2021/06/22 12:41:32;;;;;;;17.00;5.03;;;;;;;;;;5091956;28;20378;-60
2021/06/22 12:44:03;;;;;;;18.38;4.38;;;;;;;;;;5093174;28;20024;-60
2021/06/22 12:46:29;;;;;;;19.55;4.80;;;;;;;;;;5093367;28;20015;-60
2021/06/22 12:48:56;;;;;;;16.60;4.45;;;;;;;;;;5093123;28;20475;-60
2021/06/22 12:51:23;;;;;;;15.82;4.90;;;;;;;;;;5092897;28;20020;-60
2021/06/22 12:53:49;;;;;;;19.00;4.20;;;;;;;;;;5091775;28;20075;-60
2021/06/22 12:56:17;;;;;;;14.90;4.50;;;;;;;;;;5092744;28;20044;-60
2021/06/22 12:58:54;;;;;;;17.33;5.40;;;;;;;;;;5092792;28;20027;-62
2021/06/22 13:01:27;;;;;;;17.48;4.80;;;;;;;;;;5093409;28;20130;-59
2021/06/22 13:03:53;;;;;;;11.75;4.00;;;;;;;;;;5092865;28;20563;-63
2021/06/22 13:06:27;;;;;;;15.52;4.60;;;;;;;;;;5092843;28;20052;-60
2021/06/22 13:08:57;;;;;;;15.73;4.78;;;;;;;;;;5093068;28;20032;-60
2021/06/22 13:11:31;;;;;;;23.02;5.80;;;;;;;;;;5091489;28;20379;-59
2021/06/22 13:14:07;;;;;;;17.98;4.60;;;;;;;;;;5092691;28;20115;-62
2021/06/22 13:16:33;;;;;;;15.45;5.25;;;;;;;;;;5092685;28;20073;-60
2021/06/22 13:18:59;;;;;;;18.77;4.97;;;;;;;;;;5092414;28;20012;-60
2021/06/22 13:21:35;;;;;;;13.40;4.13;;;;;;;;;;5092541;28;20407;-61
2021/06/22 13:24:01;;;;;;;12.93;4.90;;;;;;;;;;5092363;28;20073;-61
2021/06/22 13:26:27;;;;;;;18.45;4.50;;;;;;;;;;5092236;28;20067;-60
2021/06/22 13:28:58;;;;;;;15.30;5.28;;;;;;;;;;5092098;28;20372;-60
2021/06/22 13:31:24;;;;;;;17.80;4.95;;;;;;;;;;5092216;28;20024;-60
2021/06/22 13:34:05;;;;;;;19.73;4.63;;;;;;;;;;5092197;28;20039;-60
2021/06/22 13:36:31;;;;;;;16.65;4.72;;;;;;;;;;5092206;28;20024;-60
2021/06/22 13:39:04;;;;;;;14.70;4.82;;;;;;;;;;5092321;28;20020;-59
2021/06/22 13:41:31;;;;;;;19.10;5.38;;;;;;;;;;5092025;28;20024;-60
2021/06/22 13:43:57;;;;;;;17.10;4.78;;;;;;;;;;5091709;28;20021;-60
2021/06/22 13:46:28;;;;;;;16.90;5.18;;;;;;;;;;5091984;28;20032;-60
2021/06/22 13:48:56;;;;;;;16.63;5.32;;;;;;;;;;5092070;28;20019;-60
2021/06/22 13:51:25;;;;;;;16.15;5.65;;;;;;;;;;5092077;28;20126;-60
2021/06/22 13:53:51;;;;;;;13.27;4.40;;;;;;;;;;5091851;28;20046;-60
2021/06/22 13:56:19;;;;;;;20.38;5.18;;;;;;;;;;5090422;28;20059;-60
2021/06/22 13:58:45;;;;;;;15.32;5.05;;;;;;;;;;5091519;28;20059;-59
2021/06/22 14:01:12;;;;;;;14.07;4.68;;;;;;;;;;5090430;28;20073;-60
2021/06/22 14:03:39;;;;;;;25.92;6.00;;;;;;;;;;5091917;28;20107;-59
2021/06/22 14:06:05;;;;;;;15.52;4.90;;;;;;;;;;5086799;28;20028;-61
2021/06/22 14:08:32;;;;;;;21.17;6.82;;;;;;;;;;5071272;28;20507;-60
2021/06/22 14:10:58;;;;;;;14.40;5.20;;;;;;;;;;5071350;28;20422;-60
2021/06/22 14:13:27;;;;;;;15.68;5.60;;;;;;;;;;5071346;28;20051;-60
2021/06/22 14:15:53;;;;;;;15.40;5.65;;;;;;;;;;5071497;28;20021;-60
2021/06/22 14:18:20;;;;;;;15.57;5.50;;;;;;;;;;5071538;28;20043;-60
2021/06/22 14:20:46;;;;;;;20.25;6.25;;;;;;;;;;5071308;28;20029;-62
2021/06/22 14:23:12;;;;;;;16.67;5.80;;;;;;;;;;5071317;28;20025;-61
2021/06/22 14:25:41;;;;;;;21.55;5.75;;;;;;;;;;5071388;28;20476;-60
2021/06/22 14:28:09;;;;;;;16.05;4.95;;;;;;;;;;5071303;28;20025;-60
2021/06/22 14:30:35;;;;;;;16.40;5.53;;;;;;;;;;5071209;28;20158;-63
2021/06/22 14:33:02;;;;;;;16.00;5.68;;;;;;;;;;5071116;28;20032;-60
2021/06/22 14:35:28;;;;;;;17.30;5.70;;;;;;;;;;5071194;28;20069;-60
2021/06/22 14:37:54;;;;;;;15.43;5.80;;;;;;;;;;5071120;28;20074;-60
2021/06/22 14:40:22;;;;;;;13.45;5.82;;;;;;;;;;5071104;28;20024;-61